N9823L -KJWN
Flight info
| Callsign | N9823L |
|---|---|
| Flight time | N/A |
| Altitude | |
| Route | |
| Aircraft | B60P/L-VGD/C |
Departure
| Time | N/A |
|---|---|
| Airport | - |
Arrival
| Time | 2026-04-12 21:11 |
|---|---|
| Airport | John C Tune Airport (KJWN) |
| Time | Latitude | Longitude | Altitude | Speed | Heading |
|---|---|---|---|---|---|
| 2026-04-12 20:57 | 36.25296 | -86.50006 | 6538 ft | 240 kts | 356° |
| 2026-04-12 20:57 | 36.26962 | -86.50096 | 6542 ft | 240 kts | 356° |
| 2026-04-12 20:57 | 36.28630 | -86.50188 | 6542 ft | 240 kts | 355° |
| 2026-04-12 20:57 | 36.30296 | -86.50273 | 6541 ft | 240 kts | 356° |
| 2026-04-12 20:58 | 36.31963 | -86.50361 | 6539 ft | 239 kts | 356° |
| 2026-04-12 20:58 | 36.33627 | -86.50451 | 6547 ft | 241 kts | 355° |
| 2026-04-12 20:58 | 36.35310 | -86.50540 | 6543 ft | 243 kts | 356° |
| 2026-04-12 20:58 | 36.36994 | -86.50629 | 6546 ft | 242 kts | 355° |
| 2026-04-12 20:59 | 36.38674 | -86.50717 | 6542 ft | 241 kts | 356° |
| 2026-04-12 20:59 | 36.40355 | -86.50811 | 6547 ft | 243 kts | 355° |
| 2026-04-12 20:59 | 36.42041 | -86.50899 | 6543 ft | 241 kts | 356° |
| 2026-04-12 20:59 | 36.43715 | -86.50992 | 6544 ft | 241 kts | 356° |
| 2026-04-12 21:00 | 36.45396 | -86.51090 | 6539 ft | 242 kts | 356° |
| 2026-04-12 21:00 | 36.47076 | -86.51177 | 6540 ft | 241 kts | 356° |
| 2026-04-12 21:00 | 36.48752 | -86.51266 | 6511 ft | 241 kts | 356° |
| 2026-04-12 21:00 | 36.50424 | -86.51352 | 6514 ft | 240 kts | 356° |
| 2026-04-12 21:01 | 36.52095 | -86.51448 | 6511 ft | 240 kts | 355° |
| 2026-04-12 21:01 | 36.53653 | -86.52025 | 6500 ft | 232 kts | 321° |
| 2026-04-12 21:01 | 36.54605 | -86.53537 | 6498 ft | 219 kts | 283° |
| 2026-04-12 21:01 | 36.54817 | -86.55391 | 6375 ft | 218 kts | 267° |
| 2026-04-12 21:02 | 36.54838 | -86.57298 | 6208 ft | 222 kts | 265° |
| 2026-04-12 21:02 | 36.54842 | -86.59238 | 6012 ft | 220 kts | 265° |
| 2026-04-12 21:02 | 36.54844 | -86.61136 | 5762 ft | 219 kts | 264° |
| 2026-04-12 21:02 | 36.54827 | -86.63021 | 5514 ft | 215 kts | 259° |
| 2026-04-12 21:03 | 36.54399 | -86.64749 | 5262 ft | 206 kts | 237° |
| 2026-04-12 21:03 | 36.53519 | -86.66108 | 5031 ft | 200 kts | 222° |
| 2026-04-12 21:03 | 36.52421 | -86.67156 | 4779 ft | 198 kts | 210° |
| 2026-04-12 21:03 | 36.51239 | -86.68042 | 4527 ft | 197 kts | 209° |
| 2026-04-12 21:04 | 36.50060 | -86.68913 | 4273 ft | 199 kts | 209° |
| 2026-04-12 21:04 | 36.48854 | -86.69796 | 4034 ft | 203 kts | 209° |
| 2026-04-12 21:04 | 36.47621 | -86.70685 | 3794 ft | 207 kts | 209° |
| 2026-04-12 21:04 | 36.46370 | -86.71585 | 3549 ft | 209 kts | 208° |
| 2026-04-12 21:05 | 36.45113 | -86.72484 | 3524 ft | 208 kts | 209° |
| 2026-04-12 21:05 | 36.43865 | -86.73377 | 3495 ft | 206 kts | 209° |
| 2026-04-12 21:05 | 36.42627 | -86.74249 | 3502 ft | 203 kts | 209° |
| 2026-04-12 21:05 | 36.41397 | -86.75117 | 3490 ft | 204 kts | 209° |
| 2026-04-12 21:06 | 36.40169 | -86.75995 | 3499 ft | 202 kts | 208° |
| 2026-04-12 21:06 | 36.38953 | -86.76868 | 3492 ft | 202 kts | 210° |
| 2026-04-12 21:06 | 36.37731 | -86.77727 | 3500 ft | 201 kts | 208° |
| 2026-04-12 21:06 | 36.36530 | -86.78617 | 3503 ft | 202 kts | 217° |
| 2026-04-12 21:07 | 36.35519 | -86.79853 | 3491 ft | 206 kts | 226° |
| 2026-04-12 21:07 | 36.34888 | -86.80758 | 3492 ft | 205 kts | 227° |
| 2026-04-12 21:07 | 36.33966 | -86.82082 | 3487 ft | 201 kts | 226° |
| 2026-04-12 21:07 | 36.33010 | -86.83330 | 3300 ft | 199 kts | 214° |
| 2026-04-12 21:08 | 36.31802 | -86.84137 | 3040 ft | 197 kts | 200° |
| 2026-04-12 21:08 | 36.30507 | -86.84656 | 2792 ft | 195 kts | 196° |
| 2026-04-12 21:08 | 36.29207 | -86.85105 | 2546 ft | 193 kts | 194° |
| 2026-04-12 21:08 | 36.27912 | -86.85512 | 2287 ft | 189 kts | 193° |
| 2026-04-12 21:09 | 36.26645 | -86.85931 | 2045 ft | 188 kts | 195° |
| 2026-04-12 21:09 | 36.25399 | -86.86336 | 1793 ft | 182 kts | 194° |
| 2026-04-12 21:09 | 36.24217 | -86.86719 | 1572 ft | 169 kts | 197° |
| 2026-04-12 21:09 | 36.23115 | -86.87090 | 1325 ft | 159 kts | 192° |
| 2026-04-12 21:10 | 36.22152 | -86.87396 | 1148 ft | 125 kts | 194° |
| 2026-04-12 21:10 | 36.21399 | -86.87642 | 993 ft | 99 kts | 193° |
| 2026-04-12 21:10 | 36.20737 | -86.87856 | 871 ft | 100 kts | 193° |
| 2026-04-12 21:10 | 36.20072 | -86.88071 | 733 ft | 98 kts | 191° |
| 2026-04-12 21:11 | 36.19425 | -86.88293 | 638 ft | 95 kts | 193° |
| 2026-04-12 21:11 | 36.18818 | -86.88484 | 516 ft | 81 kts | 194° |
| 2026-04-12 21:11 | 36.18393 | -86.88622 | 484 ft | 49 kts | 195° |
| 2026-04-12 21:11 | 36.18121 | -86.88712 | 478 ft | 34 kts | 195° |
| 2026-04-12 21:12 | 36.17947 | -86.88759 | 470 ft | 12 kts | 170° |
| 2026-04-12 21:12 | 36.17917 | -86.88684 | 474 ft | 10 kts | 104° |
| 2026-04-12 21:12 | 36.17914 | -86.88668 | 474 ft | 0 kts | 103° |
| 2026-04-12 21:13 | 36.17914 | -86.88669 | 474 ft | 0 kts | 103° |
| 2026-04-12 21:14 | 36.17905 | -86.88627 | 471 ft | 15 kts | 106° |
| 2026-04-12 21:14 | 36.17865 | -86.88495 | 471 ft | 16 kts | 129° |
| 2026-04-12 21:15 | 36.17793 | -86.88407 | 475 ft | 10 kts | 137° |
| 2026-04-12 21:15 | 36.17789 | -86.88331 | 477 ft | 11 kts | 47° |
| 2026-04-12 21:15 | 36.17845 | -86.88320 | 473 ft | 12 kts | 342° |
| 2026-04-12 21:15 | 36.17874 | -86.88361 | 474 ft | 0 kts | 313° |